createdAt,value
2022-09-05T00:02:33.064Z,7
2022-09-05T00:07:41.299Z,8
2022-09-05T00:12:33.567Z,6
2022-09-05T00:17:45.882Z,7
2022-09-05T00:24:24.410Z,7
2022-09-05T00:27:33.634Z,6
2022-09-05T00:32:33.101Z,5
2022-09-05T00:37:33.119Z,6
2022-09-05T05:17:12.918Z,6
2022-09-05T05:19:15.690Z,10
2022-09-05T05:24:15.550Z,10
2022-09-05T05:29:19.363Z,11
2022-09-05T05:34:24.337Z,9
2022-09-05T05:39:16.075Z,11
2022-09-05T05:44:15.445Z,8
2022-09-05T05:49:16.101Z,8
2022-09-05T05:54:17.353Z,8
2022-09-05T05:59:15.010Z,8
2022-09-05T06:04:15.630Z,7
2022-09-05T06:10:22.728Z,9
2022-09-05T06:14:53.913Z,9
2022-09-05T06:19:15.567Z,9
2022-09-05T06:24:15.574Z,9
2022-09-05T06:29:16.274Z,9
2022-09-05T06:34:27.955Z,9
2022-09-05T06:39:16.361Z,11
2022-09-05T06:44:16.104Z,9
2022-09-05T06:49:28.695Z,9
2022-09-05T06:54:17.509Z,9
2022-09-05T06:59:15.777Z,8
2022-09-05T07:04:55.361Z,10
2022-09-05T07:09:15.646Z,11
2022-09-05T07:14:17.439Z,11
2022-09-05T07:19:15.741Z,11
2022-09-05T07:24:22.650Z,9
2022-09-05T07:29:15.845Z,10
2022-09-05T07:34:20.499Z,11
2022-09-05T07:39:28.034Z,9
2022-09-05T07:44:15.865Z,10
2022-09-05T07:49:15.809Z,10
2022-09-05T07:56:57.470Z,8
2022-09-05T07:59:15.758Z,9
2022-09-05T08:04:15.882Z,7
2022-09-05T08:09:22.049Z,7
2022-09-05T08:21:15.610Z,8
2022-09-05T08:21:31.322Z,8
2022-09-05T08:26:32.010Z,7
2022-09-05T08:31:32.460Z,7
2022-09-05T08:36:31.939Z,7
2022-09-05T08:41:35.534Z,7
2022-09-05T08:46:39.070Z,8
2022-09-05T08:51:31.837Z,7
2022-09-05T08:56:31.912Z,6
2022-09-05T09:01:32.485Z,6
2022-09-05T09:06:32.464Z,5
2022-09-05T09:34:47.302Z,5
2022-09-05T09:40:01.268Z,6
2022-09-05T09:45:01.016Z,6
2022-09-05T09:50:01.698Z,7
2022-09-05T09:55:00.492Z,7
2022-09-05T10:00:01.584Z,7
2022-09-05T10:07:41.833Z,6
2022-09-05T10:10:40.781Z,6
2022-09-05T10:15:05.226Z,7
2022-09-05T10:20:10.263Z,5
2022-09-05T10:25:12.255Z,6
2022-09-05T10:30:01.937Z,6
2022-09-05T10:35:12.076Z,5
2022-09-05T10:40:01.115Z,6
2022-09-05T10:45:01.357Z,6
2022-09-05T10:50:01.751Z,6
2022-09-05T10:55:02.569Z,5
2022-09-05T11:00:47.811Z,4
2022-09-05T11:05:01.255Z,5
2022-09-05T11:10:01.864Z,6
2022-09-05T11:15:01.255Z,5
2022-09-05T11:20:01.827Z,5
2022-09-05T11:25:01.150Z,4
2022-09-05T11:30:01.249Z,4
2022-09-05T11:36:54.635Z,4
2022-09-05T11:40:26.871Z,4
2022-09-05T11:45:00.647Z,3
2022-09-05T11:50:01.899Z,4
2022-09-05T11:55:01.907Z,4
2022-09-05T12:00:18.606Z,4
2022-09-05T12:05:48.163Z,3
2022-09-05T12:10:01.313Z,4
2022-09-05T12:15:00.873Z,4
2022-09-05T12:20:01.886Z,3
2022-09-05T12:25:16.546Z,4
2022-09-05T12:30:01.458Z,3
2022-09-05T12:36:03.322Z,3
2022-09-05T12:40:27.698Z,3
2022-09-05T12:45:02.090Z,2
2022-09-05T12:50:03.090Z,3
2022-09-05T12:55:02.015Z,3
2022-09-05T13:01:53.156Z,3
2022-09-05T13:05:02.755Z,4
2022-09-05T13:10:58.806Z,3
2022-09-05T13:15:11.227Z,4
2022-09-05T13:20:03.284Z,3
2022-09-05T13:25:00.861Z,3
2022-09-05T13:30:54.849Z,3
2022-09-05T13:37:57.444Z,3
2022-09-05T13:40:01.099Z,5
2022-09-05T13:45:01.489Z,4
2022-09-05T13:50:05.007Z,4
2022-09-05T13:55:01.102Z,5
2022-09-05T14:00:01.530Z,4
2022-09-05T14:05:08.233Z,3
2022-09-05T14:10:03.327Z,5
2022-09-05T14:15:10.339Z,4
2022-09-05T14:20:01.598Z,5
2022-09-05T14:25:02.284Z,4
2022-09-05T14:30:05.438Z,4
2022-09-05T14:37:38.158Z,4
2022-09-05T14:40:02.112Z,4
2022-09-05T14:45:07.212Z,4
2022-09-05T14:50:03.680Z,5
2022-09-05T14:55:25.428Z,3
2022-09-05T15:02:40.580Z,4
2022-09-05T15:05:09.298Z,4
2022-09-05T15:11:25.968Z,4
2022-09-05T15:15:01.637Z,4
2022-09-05T15:20:05.927Z,4
2022-09-05T15:25:12.218Z,4
2022-09-05T15:30:01.615Z,4
2022-09-05T15:35:01.660Z,3
2022-09-05T15:40:01.270Z,3
2022-09-05T15:45:12.589Z,5
2022-09-05T15:50:01.243Z,4
2022-09-05T15:55:01.785Z,4
2022-09-05T16:00:02.733Z,4
2022-09-05T16:08:54.213Z,3
2022-09-05T16:10:55.504Z,4
2022-09-05T16:15:13.210Z,4
2022-09-05T16:23:12.572Z,4
2022-09-05T16:25:02.545Z,4
2022-09-05T16:30:02.324Z,3
2022-09-05T16:35:01.760Z,4
2022-09-05T16:40:01.459Z,4
2022-09-05T16:45:03.601Z,4
2022-09-05T16:50:01.769Z,3
2022-09-05T16:55:01.973Z,4
2022-09-05T17:00:01.810Z,4
2022-09-05T17:05:03.923Z,5
2022-09-05T17:10:01.318Z,4
2022-09-05T17:15:02.072Z,5
2022-09-05T17:20:06.599Z,4
2022-09-05T17:29:21.541Z,9
2022-09-05T17:35:17.929Z,4
2022-09-05T17:40:01.512Z,4
2022-09-05T17:45:01.994Z,4
2022-09-05T17:50:01.446Z,4
2022-09-05T17:55:02.605Z,4
2022-09-05T18:00:03.982Z,4
2022-09-05T18:05:02.695Z,4
2022-09-05T18:10:13.264Z,5
2022-09-05T18:15:04.441Z,5
2022-09-05T18:20:06.345Z,5
2022-09-05T18:25:14.015Z,5
2022-09-05T18:30:02.052Z,5
2022-09-05T18:35:02.059Z,5
2022-09-05T18:40:02.952Z,4
2022-09-05T18:45:01.458Z,6
2022-09-05T18:50:23.374Z,6
2022-09-05T18:55:30.183Z,6
2022-09-05T19:00:02.031Z,5
2022-09-05T19:05:02.531Z,5
2022-09-05T19:10:03.606Z,5
2022-09-05T19:15:06.783Z,6
2022-09-05T19:20:05.181Z,7
2022-09-05T19:25:02.984Z,6
2022-09-05T19:36:47.876Z,7
2022-09-05T19:37:01.822Z,6
2022-09-05T19:41:27.089Z,6
2022-09-05T19:47:32.340Z,6
2022-09-05T19:50:01.590Z,5
2022-09-05T19:55:02.930Z,4
2022-09-05T20:00:02.220Z,5
2022-09-05T20:05:02.756Z,5
2022-09-05T20:10:02.887Z,5
2022-09-05T20:15:01.726Z,5
2022-09-05T20:20:02.281Z,5
2022-09-05T20:25:01.669Z,5
2022-09-05T20:30:01.974Z,5
2022-09-05T20:36:26.590Z,7
2022-09-05T20:43:34.614Z,5
2022-09-05T20:45:02.390Z,6
2022-09-05T20:53:49.316Z,6
2022-09-05T20:55:09.293Z,6
2022-09-05T21:00:02.872Z,6
2022-09-05T21:05:06.637Z,5
2022-09-05T21:10:02.263Z,6
2022-09-05T21:15:02.296Z,4
2022-09-05T21:20:02.926Z,5
2022-09-05T21:25:01.879Z,6
2022-09-05T21:30:01.844Z,8
2022-09-05T21:35:02.940Z,8
2022-09-05T21:40:02.487Z,7
2022-09-05T21:47:36.772Z,6
2022-09-05T21:50:02.354Z,5
2022-09-05T21:58:48.572Z,6
2022-09-05T22:00:05.527Z,5
2022-09-05T22:05:03.585Z,6
2022-09-05T22:10:02.380Z,7
2022-09-05T22:15:04.569Z,7
2022-09-05T22:20:03.233Z,6
2022-09-05T22:25:01.891Z,5
2022-09-05T22:30:03.047Z,5
2022-09-05T22:35:15.563Z,6
2022-09-05T22:40:02.536Z,7
2022-09-05T22:45:01.963Z,6
2022-09-05T22:50:01.960Z,6
2022-09-05T22:55:01.952Z,5
2022-09-05T23:00:02.502Z,6
2022-09-05T23:05:02.545Z,5
2022-09-05T23:10:01.976Z,6
2022-09-05T23:15:03.248Z,7
2022-09-05T23:20:03.277Z,8
2022-09-05T23:25:02.139Z,7
2022-09-05T23:30:02.660Z,10
2022-09-05T23:35:02.735Z,10
2022-09-05T23:40:02.274Z,8
2022-09-05T23:45:02.703Z,8
2022-09-05T23:50:02.790Z,8
2022-09-05T23:55:02.689Z,7
